Time;durP1;ratioP1;P1;durP2;ratioP2;P2;SDS_P1;SDS_P2;PMS_P1;PMS_P2;Temp;Humidity;BMP_temperature;BMP_pressure;BME280_temperature;BME280_humidity;BME280_pressure;Samples;Min_cycle;Max_cycle;Signal;HPM_P1;HPM_P2
2022/06/05 00:03:52;;;;;;;;;;;;;;;21.48;62.62;100294.22;10389443;28;20012;-63
2022/06/05 00:09:13;;;;;;;;;;;;;;;21.44;62.89;100286.66;10388969;28;19987;-64
2022/06/05 00:14:14;;;;;;;;;;;;;;;21.40;62.89;100293.50;10391212;28;20286;-63
2022/06/05 00:19:16;;;;;;;;;;;;;;;21.35;62.77;100296.78;10410247;28;19993;-64
2022/06/05 00:24:17;;;;;;;;;;;;;;;21.31;63.11;100304.44;10411686;28;19961;-64
2022/06/05 00:29:35;;;;;;;;;;;;;;;21.28;62.97;100293.16;10393885;28;20395;-63
2022/06/05 00:34:36;;;;;;;;;;;;;;;21.25;62.67;100294.38;10389532;28;19937;-63
2022/06/05 00:39:52;;;;;;;;;;;;;;;21.22;62.75;100313.72;10393095;28;19924;-63
2022/06/05 00:44:55;;;;;;;;;;;;;;;21.19;62.74;100309.53;10397966;28;19999;-63
2022/06/05 00:49:58;;;;;;;;;;;;;;;21.15;62.65;100294.72;10392317;28;19935;-63
2022/06/05 00:55:00;;;;;;;;;;;;;;;21.13;62.87;100295.94;10394095;28;20031;-63
2022/06/05 01:00:04;;;;;;;;;;;;;;;21.12;62.55;100300.50;10394121;28;19931;-63
2022/06/05 01:05:07;;;;;;;;;;;;;;;21.11;62.48;100316.94;10394186;28;20503;-63
2022/06/05 01:10:10;;;;;;;;;;;;;;;21.08;62.47;100301.91;10397603;28;20119;-63
2022/06/05 01:15:24;;;;;;;;;;;;;;;21.04;62.37;100307.91;10394039;28;20214;-63
2022/06/05 01:20:39;;;;;;;;;;;;;;;20.97;62.54;100310.53;10391378;28;20526;-63
2022/06/05 01:25:48;;;;;;;;;;;;;;;20.92;62.85;100299.44;10392227;28;19929;-63
2022/06/05 01:30:51;;;;;;;;;;;;;;;20.88;62.94;100298.97;10390554;28;19939;-64
2022/06/05 01:36:05;;;;;;;;;;;;;;;20.89;62.80;100289.84;10392460;28;19964;-64
2022/06/05 01:41:19;;;;;;;;;;;;;;;20.89;62.72;100299.81;10389668;28;19935;-64
2022/06/05 01:46:27;;;;;;;;;;;;;;;20.84;62.92;100260.66;10397535;28;20638;-64
2022/06/05 01:51:31;;;;;;;;;;;;;;;20.79;62.88;100252.28;10392560;28;19932;-63
2022/06/05 01:56:32;;;;;;;;;;;;;;;20.75;63.22;100245.56;10388621;28;19935;-63
2022/06/05 02:01:36;;;;;;;;;;;;;;;20.70;63.07;100220.94;10389298;28;19928;-63
2022/06/05 02:06:42;;;;;;;;;;;;;;;20.68;63.07;100222.19;10395204;28;19929;-63
2022/06/05 02:11:44;;;;;;;;;;;;;;;20.65;63.07;100204.44;10387491;28;20053;-64
2022/06/05 02:16:45;;;;;;;;;;;;;;;20.62;63.14;100180.47;10393937;28;20003;-63
2022/06/05 02:21:47;;;;;;;;;;;;;;;20.60;62.96;100150.09;10389094;28;20012;-64
2022/06/05 02:26:48;;;;;;;;;;;;;;;20.53;62.88;100128.38;10395335;28;20310;-63
2022/06/05 02:31:52;;;;;;;;;;;;;;;20.46;63.25;100112.09;10389170;28;20644;-63
2022/06/05 02:37:03;;;;;;;;;;;;;;;20.51;63.50;100083.63;10386467;28;19929;-63
2022/06/05 02:42:07;;;;;;;;;;;;;;;20.46;63.36;100068.84;10389021;28;19933;-64
2022/06/05 02:47:11;;;;;;;;;;;;;;;20.45;63.38;100034.72;10390749;28;20019;-63
2022/06/05 02:52:12;;;;;;;;;;;;;;;20.45;63.58;100023.91;10394485;28;19929;-63
2022/06/05 02:57:14;;;;;;;;;;;;;;;20.37;63.41;100007.84;10393576;28;19929;-63
2022/06/05 03:07:35;;;;;;;;;;;;;;;20.13;63.99;100027.94;10390147;28;20753;-64
2022/06/05 03:12:36;;;;;;;;;;;;;;;20.10;64.27;100021.09;10389911;28;19925;-64
2022/06/05 03:17:37;;;;;;;;;;;;;;;20.20;63.87;100017.22;10393617;28;20004;-63
2022/06/05 03:22:39;;;;;;;;;;;;;;;20.25;63.57;100012.91;10389187;28;19925;-62
2022/06/05 03:27:40;;;;;;;;;;;;;;;20.28;63.20;99998.16;10386540;28;20463;-63
2022/06/05 03:32:42;;;;;;;;;;;;;;;20.32;63.19;100007.56;10390022;28;20401;-63
2022/06/05 03:37:44;;;;;;;;;;;;;;;20.26;63.23;100024.56;10385520;28;19929;-63
2022/06/05 03:42:45;;;;;;;;;;;;;;;20.24;62.67;100040.13;10386061;28;20016;-62
2022/06/05 03:47:46;;;;;;;;;;;;;;;20.23;63.31;100054.66;10392952;28;20646;-63
2022/06/05 03:52:48;;;;;;;;;;;;;;;20.25;62.93;100072.38;10389156;28;19929;-63
2022/06/05 03:57:50;;;;;;;;;;;;;;;20.28;62.95;100082.81;10392529;28;19920;-63
2022/06/05 04:02:51;;;;;;;;;;;;;;;20.31;62.98;100076.16;10384403;28;20011;-63
2022/06/05 04:07:52;;;;;;;;;;;;;;;20.32;62.91;100067.03;10388037;28;19952;-63
2022/06/05 04:12:54;;;;;;;;;;;;;;;20.34;62.84;100056.03;10397658;28;20567;-63
2022/06/05 04:17:56;;;;;;;;;;;;;;;20.34;62.54;100053.31;10390658;28;19927;-63
2022/06/05 04:22:58;;;;;;;;;;;;;;;20.35;63.07;100065.81;10394828;28;19970;-63
2022/06/05 04:28:00;;;;;;;;;;;;;;;20.31;62.71;100097.78;10398312;28;19990;-64
2022/06/05 04:33:01;;;;;;;;;;;;;;;20.36;63.30;100127.78;10395412;28;20332;-64
2022/06/05 04:38:03;;;;;;;;;;;;;;;20.42;63.07;100145.94;10395993;28;20234;-61
2022/06/05 04:43:06;;;;;;;;;;;;;;;20.30;63.01;100155.59;10395792;28;19921;-64
2022/06/05 04:48:10;;;;;;;;;;;;;;;20.19;63.50;100166.88;10398356;28;20427;-64
2022/06/05 04:53:11;;;;;;;;;;;;;;;20.23;63.70;100170.88;10391902;28;19927;-62
2022/06/05 04:58:12;;;;;;;;;;;;;;;20.28;62.94;100172.00;10397473;28;20300;-63
2022/06/05 05:03:13;;;;;;;;;;;;;;;20.20;63.13;100165.84;10399319;28;19940;-62
2022/06/05 05:08:15;;;;;;;;;;;;;;;20.10;63.46;100156.16;10399849;28;19931;-64
2022/06/05 05:13:16;;;;;;;;;;;;;;;20.14;64.01;100162.84;10400415;27;19929;-63
2022/06/05 05:18:18;;;;;;;;;;;;;;;20.17;64.00;100183.25;10400756;28;19925;-64
2022/06/05 05:23:19;;;;;;;;;;;;;;;20.08;64.34;100169.00;10394406;28;19948;-64
2022/06/05 05:28:22;;;;;;;;;;;;;;;19.91;64.20;100167.56;10400884;28;20379;-65
2022/06/05 05:33:24;;;;;;;;;;;;;;;19.83;66.45;100154.13;10401989;28;19925;-64
2022/06/05 05:38:25;;;;;;;;;;;;;;;20.11;65.17;100141.63;10393358;28;20024;-62
2022/06/05 05:43:27;;;;;;;;;;;;;;;20.29;64.95;100141.22;10393009;28;20075;-62
2022/06/05 05:48:28;;;;;;;;;;;;;;;20.34;64.91;100146.03;10409752;28;19979;-61
2022/06/05 05:53:29;;;;;;;;;;;;;;;20.44;64.58;100138.47;10397508;28;20024;-62
2022/06/05 05:58:31;;;;;;;;;;;;;;;20.48;64.39;100131.66;10395943;28;19933;-62
2022/06/05 06:03:32;;;;;;;;;;;;;;;20.52;63.98;100131.28;10396425;28;19929;-64
2022/06/05 06:08:34;;;;;;;;;;;;;;;20.54;64.04;100134.66;10395554;28;19947;-62
2022/06/05 06:13:35;;;;;;;;;;;;;;;20.57;64.47;100107.22;10394778;28;19969;-63
2022/06/05 06:18:37;;;;;;;;;;;;;;;20.58;67.00;100076.44;10379669;28;19935;-62
2022/06/05 06:23:38;;;;;;;;;;;;;;;20.59;67.69;100051.06;10382908;28;20450;-63
2022/06/05 06:28:40;;;;;;;;;;;;;;;20.58;68.61;100054.78;10392210;28;19941;-66
2022/06/05 06:33:42;;;;;;;;;;;;;;;20.52;69.06;100023.94;10393233;28;19932;-62
2022/06/05 06:38:44;;;;;;;;;;;;;;;20.47;69.72;99973.19;10385599;28;19975;-62
2022/06/05 06:43:46;;;;;;;;;;;;;;;20.46;71.17;99949.91;10399385;28;20012;-62
2022/06/05 06:48:48;;;;;;;;;;;;;;;20.37;71.08;99951.06;10399171;28;20404;-63
2022/06/05 06:53:50;;;;;;;;;;;;;;;20.38;71.66;99941.91;10402621;28;19956;-62
2022/06/05 06:58:52;;;;;;;;;;;;;;;20.37;73.09;99921.34;10390365;28;19983;-67
2022/06/05 07:03:54;;;;;;;;;;;;;;;20.56;72.70;99922.50;10398377;28;20044;-63
2022/06/05 07:08:55;;;;;;;;;;;;;;;20.62;73.77;99915.47;10402761;28;20462;-64
2022/06/05 07:13:56;;;;;;;;;;;;;;;20.86;72.74;99921.50;10430594;28;20291;-64
2022/06/05 07:18:58;;;;;;;;;;;;;;;21.05;71.58;99915.34;10386350;28;20034;-63
2022/06/05 07:23:59;;;;;;;;;;;;;;;21.27;70.75;99901.69;10395613;28;19935;-65
2022/06/05 07:29:02;;;;;;;;;;;;;;;21.41;70.12;99908.00;10393274;28;19995;-64
2022/06/05 07:34:05;;;;;;;;;;;;;;;21.49;68.45;99924.91;10389854;28;20614;-65
2022/06/05 07:39:07;;;;;;;;;;;;;;;21.37;68.68;99943.59;10395751;28;19974;-62
2022/06/05 07:44:08;;;;;;;;;;;;;;;21.30;70.15;99921.09;10401086;28;20015;-62
2022/06/05 07:49:10;;;;;;;;;;;;;;;21.51;70.43;99913.91;10405442;28;20122;-60
2022/06/05 07:54:27;;;;;;;;;;;;;;;21.65;69.45;99912.09;10394483;28;19929;-61
2022/06/05 07:59:31;;;;;;;;;;;;;;;21.63;69.46;99916.84;10394122;28;19948;-62
2022/06/05 08:04:33;;;;;;;;;;;;;;;21.75;69.28;99909.78;10394160;28;20540;-62
2022/06/05 08:09:35;;;;;;;;;;;;;;;21.79;67.10;99942.75;10394327;28;19929;-62
2022/06/05 08:14:38;;;;;;;;;;;;;;;21.78;66.00;99928.34;10404196;28;19956;-62
2022/06/05 08:19:40;;;;;;;;;;;;;;;21.75;65.53;99903.53;10422558;28;19952;-61
2022/06/05 08:24:42;;;;;;;;;;;;;;;21.80;66.56;99901.91;10421099;28;20001;-63
2022/06/05 08:29:47;;;;;;;;;;;;;;;21.68;65.72;99898.97;10427059;28;20463;-61
2022/06/05 08:34:49;;;;;;;;;;;;;;;21.64;65.71;99905.00;10424050;28;19936;-62
2022/06/05 08:45:15;;;;;;;;;;;;;;;21.49;65.94;99930.31;10405778;28;19984;-62
2022/06/05 08:50:36;;;;;;;;;;;;;;;21.47;66.83;99929.69;10422337;28;19933;-63
2022/06/05 08:55:40;;;;;;;;;;;;;;;21.44;66.65;99932.81;10424272;28;19929;-62
2022/06/05 09:00:43;;;;;;;;;;;;;;;21.31;66.12;99909.22;10431509;28;19952;-62
2022/06/05 09:05:50;;;;;;;;;;;;;;;21.58;66.15;99941.84;10439262;28;19932;-61
2022/06/05 09:11:00;;;;;;;;;;;;;;;21.53;66.40;99944.34;10436123;28;19932;-61
2022/06/05 09:16:04;;;;;;;;;;;;;;;21.60;66.78;99938.94;10437134;28;19961;-62
2022/06/05 09:21:09;;;;;;;;;;;;;;;21.60;66.68;99944.34;10425778;28;19951;-60
2022/06/05 09:26:13;;;;;;;;;;;;;;;21.53;66.00;99956.00;10448656;28;19956;-65
2022/06/05 09:31:31;;;;;;;;;;;;;;;21.54;65.55;99952.25;10452302;28;19932;-63
2022/06/05 09:36:33;;;;;;;;;;;;;;;21.57;65.42;99956.41;10448850;28;21062;-64
2022/06/05 09:41:49;;;;;;;;;;;;;;;21.62;66.13;99958.50;10451378;28;20476;-64
2022/06/05 09:46:59;;;;;;;;;;;;;;;21.66;65.48;99951.66;10449817;28;19951;-65
2022/06/05 09:52:12;;;;;;;;;;;;;;;21.67;65.35;99945.19;10437998;28;20072;-64
2022/06/05 10:03:03;;;;;;;;;;;;;;;21.97;64.52;99944.84;10427357;28;20028;-63
2022/06/05 10:08:25;;;;;;;;;;;;;;;22.14;64.17;99937.16;10421220;28;20061;-64
2022/06/05 10:13:45;;;;;;;;;;;;;;;22.39;63.57;99921.16;10420070;28;20202;-63
2022/06/05 10:18:50;;;;;;;;;;;;;;;22.73;63.40;99913.81;10422832;28;19962;-61
2022/06/05 10:24:07;;;;;;;;;;;;;;;22.98;61.97;99915.84;10423993;28;19976;-63
2022/06/05 10:29:08;;;;;;;;;;;;;;;23.23;61.18;99897.81;10426161;28;20454;-64
2022/06/05 10:34:29;;;;;;;;;;;;;;;23.70;59.62;99883.97;10411041;28;19928;-62
2022/06/05 10:39:49;;;;;;;;;;;;;;;24.15;58.09;99872.19;10411248;28;19937;-63
2022/06/05 10:44:58;;;;;;;;;;;;;;;24.46;56.53;99875.91;10410813;28;19932;-61
2022/06/05 10:50:10;;;;;;;;;;;;;;;24.51;56.14;99873.31;10404673;28;19944;-60
2022/06/05 10:55:15;;;;;;;;;;;;;;;24.64;55.97;99878.66;10392418;28;20025;-61
2022/06/05 11:00:21;;;;;;;;;;;;;;;24.82;54.61;99879.75;10418934;28;20091;-62
2022/06/05 11:05:22;;;;;;;;;;;;;;;25.06;53.74;99873.38;10387824;28;19936;-62
2022/06/05 11:16:11;;;;;;;;;;;;;;;24.94;54.41;99860.75;10384675;28;19929;-60
2022/06/05 11:21:17;;;;;;;;;;;;;;;24.77;53.99;99841.47;10390129;28;24321;-61
2022/06/05 11:26:43;;;;;;;;;;;;;;;24.63;54.81;99852.50;10396809;28;19936;-61
2022/06/05 11:31:47;;;;;;;;;;;;;;;24.34;55.27;99854.84;10407315;28;19929;-61
2022/06/05 11:36:50;;;;;;;;;;;;;;;24.23;55.11;99854.75;10386473;28;20551;-61
2022/06/05 11:42:02;;;;;;;;;;;;;;;24.07;55.41;99867.03;10388101;28;19929;-61
2022/06/05 11:47:09;;;;;;;;;;;;;;;24.04;56.28;99851.19;10374116;28;21141;-63
2022/06/05 11:52:28;;;;;;;;;;;;;;;23.97;56.64;99852.03;10388335;28;19971;-61
2022/06/05 11:57:35;;;;;;;;;;;;;;;23.92;56.20;99849.16;10384431;28;20127;-61
2022/06/05 12:02:53;;;;;;;;;;;;;;;23.88;56.75;99837.06;10388974;28;20694;-61
2022/06/05 12:08:03;;;;;;;;;;;;;;;23.78;57.06;99858.41;10384644;28;20418;-63
2022/06/05 12:13:06;;;;;;;;;;;;;;;23.86;56.79;99852.75;10400068;28;20326;-63
2022/06/05 12:18:10;;;;;;;;;;;;;;;24.07;57.10;99845.28;10388585;28;19959;-60
2022/06/05 12:23:20;;;;;;;;;;;;;;;24.22;56.23;99843.06;10385957;28;20207;-63
2022/06/05 12:28:28;;;;;;;;;;;;;;;24.22;56.59;99844.94;10397690;28;19936;-63
2022/06/05 12:33:33;;;;;;;;;;;;;;;24.03;56.93;99835.91;10405747;28;19977;-65
2022/06/05 12:38:35;;;;;;;;;;;;;;;23.91;57.27;99820.31;10398297;28;19941;-63
2022/06/05 12:43:55;;;;;;;;;;;;;;;23.86;57.59;99813.91;10392068;28;20700;-64
2022/06/05 12:49:14;;;;;;;;;;;;;;;23.70;58.47;99823.38;10391596;28;19936;-62
2022/06/05 12:54:34;;;;;;;;;;;;;;;23.56;58.08;99812.59;10401328;28;19933;-62
2022/06/05 13:00:20;;;;;;;;;;;;;;;23.41;59.22;99810.19;10393989;28;20557;-64
2022/06/05 13:05:26;;;;;;;;;;;;;;;23.35;59.62;99805.66;10393389;28;20051;-62
2022/06/05 13:10:39;;;;;;;;;;;;;;;23.32;59.73;99807.97;10385323;28;19929;-62
2022/06/05 13:15:51;;;;;;;;;;;;;;;23.24;60.58;99812.59;10379174;28;19933;-61
2022/06/05 13:20:59;;;;;;;;;;;;;;;23.23;61.33;99808.22;10340413;28;20418;-60
2022/06/05 13:26:19;;;;;;;;;;;;;;;23.29;62.83;99793.75;10386566;28;19932;-62
2022/06/05 13:31:28;;;;;;;;;;;;;;;23.35;64.51;99788.53;10371941;28;19929;-60
2022/06/05 13:36:29;;;;;;;;;;;;;;;23.40;65.70;99792.22;10379486;28;19928;-60
2022/06/05 13:41:37;;;;;;;;;;;;;;;23.87;63.55;99788.38;10374685;28;20647;-60
2022/06/05 13:46:49;;;;;;;;;;;;;;;24.30;63.34;99785.66;10386070;28;20078;-61
2022/06/05 13:51:58;;;;;;;;;;;;;;;24.24;61.83;99791.16;10382233;28;19932;-61
2022/06/05 13:57:22;;;;;;;;;;;;;;;24.15;62.05;99782.47;10388095;28;20889;-61
2022/06/05 14:02:28;;;;;;;;;;;;;;;23.95;63.77;99788.09;10372364;28;19939;-61
2022/06/05 14:07:34;;;;;;;;;;;;;;;23.89;62.97;99770.78;10387081;28;19931;-61
2022/06/05 14:12:43;;;;;;;;;;;;;;;23.80;63.41;99761.22;10388863;28;19933;-62
2022/06/05 14:17:45;;;;;;;;;;;;;;;23.58;63.64;99761.59;10392087;28;19936;-62
2022/06/05 14:22:48;;;;;;;;;;;;;;;23.54;64.40;99764.97;10385077;28;20002;-62
2022/06/05 14:27:58;;;;;;;;;;;;;;;23.60;63.92;99754.06;10378344;28;20371;-62
2022/06/05 14:33:01;;;;;;;;;;;;;;;23.83;62.95;99752.63;10341374;28;20107;-63
2022/06/05 14:38:37;;;;;;;;;;;;;;;23.91;62.74;99763.22;10340580;28;19973;-63
2022/06/05 14:43:42;;;;;;;;;;;;;;;23.90;63.49;99769.75;10336667;28;20471;-62
2022/06/05 14:48:48;;;;;;;;;;;;;;;24.03;62.53;99757.06;10340157;28;19933;-63
2022/06/05 14:53:53;;;;;;;;;;;;;;;23.97;62.21;99784.09;10329873;28;19933;-62
2022/06/05 14:58:59;;;;;;;;;;;;;;;23.80;63.02;99794.66;10332897;28;19933;-62
2022/06/05 15:04:16;;;;;;;;;;;;;;;23.63;63.54;99775.38;10344939;28;20861;-61
2022/06/05 15:09:23;;;;;;;;;;;;;;;23.45;64.65;99778.03;10343479;28;19933;-62
2022/06/05 15:14:27;;;;;;;;;;;;;;;23.42;64.86;99773.00;10345680;28;19935;-61
2022/06/05 15:19:30;;;;;;;;;;;;;;;23.27;65.78;99778.78;10348293;28;19933;-61
2022/06/05 15:24:52;;;;;;;;;;;;;;;23.19;66.26;99806.16;10343828;28;19933;-60
2022/06/05 15:30:05;;;;;;;;;;;;;;;23.00;68.42;99788.88;10338431;28;19940;-62
2022/06/05 15:35:07;;;;;;;;;;;;;;;22.88;69.89;99802.28;10345009;28;20031;-60
2022/06/05 15:40:20;;;;;;;;;;;;;;;22.83;71.50;99816.50;10334820;28;19929;-61
2022/06/05 15:45:36;;;;;;;;;;;;;;;22.70;73.90;99824.69;10333871;28;20378;-61
2022/06/05 15:50:41;;;;;;;;;;;;;;;22.39;76.57;99829.78;10339932;28;20570;-61
2022/06/05 15:56:08;;;;;;;;;;;;;;;22.17;80.35;99831.88;10341689;28;20358;-60
2022/06/05 16:01:15;;;;;;;;;;;;;;;22.15;81.42;99823.13;10380348;28;19928;-61
2022/06/05 16:06:21;;;;;;;;;;;;;;;22.11;82.42;99821.03;10390566;28;19959;-65
2022/06/05 16:11:28;;;;;;;;;;;;;;;21.99;82.34;99824.41;10389000;27;19983;-60
2022/06/05 16:16:58;;;;;;;;;;;;;;;21.93;83.95;99819.78;10390353;28;19983;-61
2022/06/05 16:22:06;;;;;;;;;;;;;;;21.99;82.31;99818.97;10345466;27;20345;-61
2022/06/05 16:27:13;;;;;;;;;;;;;;;22.10;79.50;99820.22;10345973;28;19979;-62
2022/06/05 16:32:34;;;;;;;;;;;;;;;22.15;77.96;99831.25;10359892;28;19939;-61
2022/06/05 16:37:54;;;;;;;;;;;;;;;22.10;76.17;99831.06;10345329;28;19932;-61
2022/06/05 16:43:00;;;;;;;;;;;;;;;22.09;75.75;99832.09;10340298;28;20012;-61
2022/06/05 16:48:11;;;;;;;;;;;;;;;22.09;74.76;99828.56;10338346;28;19932;-60
2022/06/05 16:53:15;;;;;;;;;;;;;;;21.94;74.90;99836.91;10383458;27;20374;-60
2022/06/05 16:58:24;;;;;;;;;;;;;;;22.03;74.21;99816.66;10394830;27;19951;-61
2022/06/05 17:03:26;;;;;;;;;;;;;;;22.07;73.87;99831.47;10390826;28;20315;-60
2022/06/05 17:09:00;;;;;;;;;;;;;;;22.13;72.33;99810.81;10394055;27;19941;-61
2022/06/05 17:14:04;;;;;;;;;;;;;;;22.13;71.56;99825.22;10366515;28;19932;-61
2022/06/05 17:19:23;;;;;;;;;;;;;;;22.09;71.33;99826.66;10385792;28;19991;-60
2022/06/05 17:24:36;;;;;;;;;;;;;;;21.91;72.27;99831.88;10387544;28;20020;-61
2022/06/05 17:29:54;;;;;;;;;;;;;;;21.78;72.62;99817.28;10388936;28;20789;-61
2022/06/05 17:35:03;;;;;;;;;;;;;;;21.89;75.95;99841.06;10391290;28;20310;-63
2022/06/05 17:40:21;;;;;;;;;;;;;;;21.78;76.99;99814.56;10395907;28;19972;-61
2022/06/05 17:45:31;;;;;;;;;;;;;;;21.86;75.83;99806.25;10395171;28;19928;-61
2022/06/05 17:50:51;;;;;;;;;;;;;;;21.76;76.14;99819.38;10384487;28;19933;-59
2022/06/05 17:55:54;;;;;;;;;;;;;;;21.62;77.18;99814.97;10384169;28;20004;-62
2022/06/05 18:00:57;;;;;;;;;;;;;;;21.60;77.49;99811.66;10390492;28;20422;-60
2022/06/05 18:06:00;;;;;;;;;;;;;;;21.56;77.52;99797.69;10392380;28;19933;-60
2022/06/05 18:11:15;;;;;;;;;;;;;;;21.41;78.66;99810.53;10393008;28;19929;-61
2022/06/05 18:16:31;;;;;;;;;;;;;;;21.43;79.19;99819.31;10379673;28;19928;-64
2022/06/05 18:21:34;;;;;;;;;;;;;;;21.29;77.25;99829.28;10383237;28;19929;-61
2022/06/05 18:26:53;;;;;;;;;;;;;;;21.16;76.91;99847.13;10384628;28;19939;-61
2022/06/05 18:31:57;;;;;;;;;;;;;;;21.28;70.69;99860.06;10380229;28;20058;-62
2022/06/05 18:42:36;;;;;;;;;;;;;;;21.06;65.20;99872.88;10387430;28;20813;-62
2022/06/05 18:47:40;;;;;;;;;;;;;;;20.90;65.95;99874.91;10385343;28;19978;-62
2022/06/05 18:52:42;;;;;;;;;;;;;;;20.82;66.19;99894.84;10385204;28;19932;-61
2022/06/05 18:57:43;;;;;;;;;;;;;;;20.83;66.37;99912.72;10388184;28;19933;-62
2022/06/05 19:02:54;;;;;;;;;;;;;;;20.80;66.66;99902.31;10387800;28;19935;-63
2022/06/05 19:07:55;;;;;;;;;;;;;;;20.83;66.20;99917.31;10380518;27;19932;-62
2022/06/05 19:12:59;;;;;;;;;;;;;;;20.62;66.63;99937.13;10380260;28;19944;-62
2022/06/05 19:18:11;;;;;;;;;;;;;;;20.53;66.56;99928.31;10387060;28;20714;-63
2022/06/05 19:23:19;;;;;;;;;;;;;;;20.62;66.62;99972.25;10383104;28;20032;-61
2022/06/05 19:28:33;;;;;;;;;;;;;;;20.59;66.89;99975.38;10390141;28;19931;-64
2022/06/05 19:33:36;;;;;;;;;;;;;;;20.56;66.72;99987.41;10383709;28;19932;-62
2022/06/05 19:38:37;;;;;;;;;;;;;;;20.43;66.18;99995.38;10380060;28;20089;-63
2022/06/05 19:43:47;;;;;;;;;;;;;;;20.35;66.50;100007.19;10381447;28;19929;-63
2022/06/05 19:48:49;;;;;;;;;;;;;;;20.36;65.73;100008.84;10380225;28;20445;-62
2022/06/05 19:53:55;;;;;;;;;;;;;;;20.22;65.21;100012.44;10374083;28;19990;-63
2022/06/05 19:59:00;;;;;;;;;;;;;;;20.17;65.35;100023.00;10382387;28;19939;-64
2022/06/05 20:04:09;;;;;;;;;;;;;;;20.22;65.42;100025.97;10387179;28;20876;-67
2022/06/05 20:09:14;;;;;;;;;;;;;;;20.27;65.01;100031.66;10384439;28;20297;-66
2022/06/05 20:14:22;;;;;;;;;;;;;;;19.96;65.96;100051.66;10378677;28;20339;-62
2022/06/05 20:19:36;;;;;;;;;;;;;;;19.85;65.98;100054.88;10388452;28;19932;-60
2022/06/05 20:24:38;;;;;;;;;;;;;;;19.88;65.82;100058.00;10381610;28;20294;-62
2022/06/05 20:29:40;;;;;;;;;;;;;;;19.95;65.27;100071.59;10381599;28;19929;-62
2022/06/05 20:34:41;;;;;;;;;;;;;;;19.90;65.32;100076.72;10384151;28;19933;-62
2022/06/05 20:39:45;;;;;;;;;;;;;;;19.93;65.64;100074.47;10378350;28;19940;-62
2022/06/05 20:44:49;;;;;;;;;;;;;;;19.75;66.68;100091.03;10389317;28;20314;-62
2022/06/05 20:49:54;;;;;;;;;;;;;;;19.54;67.92;100088.28;10392476;28;19937;-63
2022/06/05 20:54:57;;;;;;;;;;;;;;;19.49;68.08;100088.00;10396481;28;19929;-63
2022/06/05 20:59:58;;;;;;;;;;;;;;;19.43;68.30;100084.19;10397757;28;19933;-63
2022/06/05 21:10:21;;;;;;;;;;;;;;;19.40;68.40;100100.75;10396206;28;20019;-62
2022/06/05 21:20:26;;;;;;;;;;;;;;;19.25;69.59;100098.03;10394336;28;20352;-62
2022/06/05 21:25:41;;;;;;;;;;;;;;;19.13;70.22;100102.22;10391441;28;19935;-63
2022/06/05 21:30:44;;;;;;;;;;;;;;;19.17;70.48;100117.00;10397369;28;19929;-63
2022/06/05 21:35:48;;;;;;;;;;;;;;;19.14;71.06;100115.50;10426580;28;20027;-63
2022/06/05 21:40:53;;;;;;;;;;;;;;;19.07;70.60;100111.88;10392328;28;22895;-63
2022/06/05 21:45:57;;;;;;;;;;;;;;;18.98;71.11;100119.19;10394889;28;19936;-63
2022/06/05 21:50:58;;;;;;;;;;;;;;;18.93;71.46;100118.91;10393570;28;19925;-61
2022/06/05 21:56:02;;;;;;;;;;;;;;;18.84;71.82;100128.03;10395528;28;20380;-63
2022/06/05 22:01:04;;;;;;;;;;;;;;;18.75;72.23;100129.09;10389274;27;19940;-62
2022/06/05 22:06:07;;;;;;;;;;;;;;;18.82;72.49;100130.06;10393390;28;20024;-63
2022/06/05 22:11:10;;;;;;;;;;;;;;;18.79;72.16;100130.44;10395100;28;19929;-63
2022/06/05 22:16:12;;;;;;;;;;;;;;;18.64;72.80;100136.59;10394906;28;19951;-63
2022/06/05 22:21:13;;;;;;;;;;;;;;;18.62;73.20;100129.72;10394696;28;19931;-63
2022/06/05 22:26:14;;;;;;;;;;;;;;;18.61;73.43;100139.66;10388334;28;19978;-62
2022/06/05 22:31:16;;;;;;;;;;;;;;;18.61;73.68;100142.34;10391037;28;19925;-63
2022/06/05 22:36:17;;;;;;;;;;;;;;;18.63;73.92;100142.16;10393378;28;19929;-63
2022/06/05 22:41:20;;;;;;;;;;;;;;;18.66;73.36;100142.66;10394212;28;19924;-63
2022/06/05 22:46:25;;;;;;;;;;;;;;;18.66;73.62;100141.81;10393741;28;19939;-63
2022/06/05 22:51:27;;;;;;;;;;;;;;;18.64;73.80;100123.09;10391552;28;20299;-62
2022/06/05 22:56:28;;;;;;;;;;;;;;;18.69;73.90;100127.97;10392396;28;20014;-63
2022/06/05 23:01:35;;;;;;;;;;;;;;;18.68;74.24;100110.97;10392927;28;19940;-63
2022/06/05 23:06:40;;;;;;;;;;;;;;;18.72;73.83;100125.75;10392454;28;19935;-63
2022/06/05 23:11:41;;;;;;;;;;;;;;;18.63;74.25;100118.75;10387491;28;20506;-63
2022/06/05 23:16:43;;;;;;;;;;;;;;;18.68;74.50;100124.44;10389369;28;19956;-63
2022/06/05 23:21:44;;;;;;;;;;;;;;;18.67;74.37;100121.94;10388718;28;20335;-63
2022/06/05 23:26:46;;;;;;;;;;;;;;;18.59;74.66;100103.97;10389626;28;19939;-63
2022/06/05 23:31:47;;;;;;;;;;;;;;;18.58;74.98;100107.66;10393019;28;20024;-62
2022/06/05 23:36:49;;;;;;;;;;;;;;;18.54;75.73;100119.84;10390454;28;20047;-63
2022/06/05 23:41:50;;;;;;;;;;;;;;;18.63;75.54;100124.16;10386973;28;20442;-63
2022/06/05 23:46:52;;;;;;;;;;;;;;;18.62;75.68;100137.81;10387713;28;19944;-62
2022/06/05 23:51:56;;;;;;;;;;;;;;;18.57;76.15;100127.56;10393854;28;20032;-62
